createdAt,value
2023-03-31T00:01:34.564Z,74.20
2023-03-31T00:04:05.646Z,74.40
2023-03-31T00:06:38.422Z,74.30
2023-03-31T00:09:07.199Z,74.20
2023-03-31T00:11:37.878Z,74.30
2023-03-31T00:14:07.489Z,74.20
2023-03-31T00:16:36.152Z,74.10
2023-03-31T00:19:05.000Z,74.20
2023-03-31T00:21:35.040Z,74.20
2023-03-31T00:24:04.515Z,74.30
2023-03-31T00:26:33.432Z,74.40
2023-03-31T00:29:03.594Z,74.60
2023-03-31T00:31:32.223Z,74.80
2023-03-31T00:34:01.166Z,75.00
2023-03-31T00:36:29.990Z,75.10
2023-03-31T00:39:00.513Z,75.00
2023-03-31T00:41:30.125Z,75.00
2023-03-31T00:47:01.675Z,75.20
2023-03-31T00:49:31.724Z,75.00
2023-03-31T00:52:03.789Z,75.40
2023-03-31T00:54:34.628Z,75.50
2023-03-31T00:57:07.032Z,75.60
2023-03-31T00:59:55.053Z,75.70
2023-03-31T01:02:26.170Z,75.60
2023-03-31T01:04:57.644Z,75.70
2023-03-31T01:07:28.297Z,75.80
2023-03-31T01:10:00.579Z,75.80
2023-03-31T01:12:29.570Z,75.70
2023-03-31T01:14:58.316Z,75.90
2023-03-31T01:17:30.219Z,76.10
2023-03-31T01:20:11.804Z,76.20
2023-03-31T01:23:10.894Z,76.20
2023-03-31T01:26:15.950Z,76.40
2023-03-31T01:28:48.012Z,76.30
2023-03-31T01:31:40.739Z,76.30
2023-03-31T01:34:30.327Z,76.50
2023-03-31T01:37:35.637Z,76.50
2023-03-31T01:40:22.960Z,76.40
2023-03-31T01:42:54.203Z,76.30
2023-03-31T01:45:27.751Z,76.50
2023-03-31T01:47:59.362Z,76.40
2023-03-31T01:50:30.666Z,77.20
2023-03-31T01:53:02.294Z,76.70
2023-03-31T01:55:35.281Z,76.80
2023-03-31T01:58:07.353Z,76.90
2023-03-31T02:00:40.446Z,77.00
2023-03-31T02:03:12.914Z,76.80
2023-03-31T02:05:44.927Z,76.80
2023-03-31T02:08:33.805Z,76.90
2023-03-31T02:11:04.205Z,77.00
2023-03-31T02:13:34.727Z,77.00
2023-03-31T02:16:06.741Z,77.10
2023-03-31T02:18:41.947Z,77.20
2023-03-31T02:21:14.360Z,77.30
2023-03-31T02:23:45.822Z,77.30
2023-03-31T02:26:17.341Z,77.30
2023-03-31T02:28:46.176Z,77.20
2023-03-31T02:31:20.191Z,77.20
2023-03-31T02:33:48.881Z,77.10
2023-03-31T02:36:17.696Z,77.00
2023-03-31T02:38:48.694Z,76.90
2023-03-31T02:41:18.768Z,77.00
2023-03-31T02:44:06.072Z,77.00
2023-03-31T02:46:34.729Z,77.20
2023-03-31T02:49:04.528Z,77.40
2023-03-31T02:52:00.076Z,77.60
2023-03-31T02:54:43.607Z,77.50
2023-03-31T02:57:20.697Z,77.30
2023-03-31T02:59:58.000Z,77.20
2023-03-31T03:02:33.683Z,77.30
2023-03-31T03:05:14.376Z,77.20
2023-03-31T03:07:52.851Z,77.40
2023-03-31T03:10:27.237Z,77.30
2023-03-31T03:12:59.761Z,77.30
2023-03-31T03:15:32.003Z,77.50
2023-03-31T03:18:01.113Z,77.50
2023-03-31T03:20:29.630Z,77.60
2023-03-31T03:22:58.136Z,77.70
2023-03-31T03:25:27.188Z,77.70
2023-03-31T03:27:55.672Z,77.70
2023-03-31T03:30:25.689Z,77.70
2023-03-31T03:32:54.902Z,78.50
2023-03-31T03:35:23.446Z,78.00
2023-03-31T03:37:51.920Z,78.10
2023-03-31T03:40:38.914Z,78.10
2023-03-31T03:43:07.393Z,78.10
2023-03-31T03:45:37.514Z,78.40
2023-03-31T03:48:06.408Z,78.50
2023-03-31T03:50:38.447Z,78.50
2023-03-31T03:53:07.302Z,79.00
2023-03-31T03:55:36.484Z,78.40
2023-03-31T03:58:05.776Z,78.20
2023-03-31T04:00:34.906Z,78.30
2023-03-31T04:03:05.606Z,78.60
2023-03-31T04:05:34.610Z,78.90
2023-03-31T04:08:03.487Z,79.20
2023-03-31T04:10:32.489Z,79.50
2023-03-31T04:13:01.343Z,79.80
2023-03-31T04:15:30.199Z,80.10
2023-03-31T04:17:59.217Z,80.50
2023-03-31T04:20:30.893Z,80.80
2023-03-31T04:22:59.862Z,81.00
2023-03-31T04:25:31.054Z,81.10
2023-03-31T04:28:00.108Z,81.40
2023-03-31T04:30:31.988Z,81.70
2023-03-31T04:33:03.144Z,82.00
2023-03-31T04:35:49.686Z,82.40
2023-03-31T04:38:20.034Z,82.90
2023-03-31T04:40:50.806Z,83.70
2023-03-31T04:43:20.904Z,84.00
2023-03-31T04:45:50.036Z,84.70
2023-03-31T04:48:19.175Z,84.70
2023-03-31T04:50:49.996Z,84.20
2023-03-31T04:53:18.939Z,84.00
2023-03-31T04:55:47.878Z,84.80
2023-03-31T04:58:16.850Z,86.20
2023-03-31T05:00:45.863Z,86.90
2023-03-31T05:03:14.852Z,84.60
2023-03-31T05:05:43.891Z,82.20
2023-03-31T05:08:14.335Z,79.90
2023-03-31T05:10:43.282Z,77.70
2023-03-31T05:13:12.272Z,76.10
2023-03-31T05:15:41.441Z,77.50
2023-03-31T05:18:10.861Z,79.50
2023-03-31T05:20:40.413Z,79.80
2023-03-31T05:23:09.304Z,78.20
2023-03-31T05:25:39.650Z,76.20
2023-03-31T05:28:08.856Z,75.10
2023-03-31T05:30:38.121Z,75.20
2023-03-31T05:33:07.057Z,75.50
2023-03-31T05:35:36.414Z,74.30
2023-03-31T05:38:05.795Z,73.40
2023-03-31T05:40:34.757Z,70.70
2023-03-31T05:43:05.046Z,70.10
2023-03-31T05:45:33.962Z,69.00
2023-03-31T05:48:03.099Z,67.90
2023-03-31T05:50:32.206Z,66.90
2023-03-31T05:53:01.160Z,67.20
2023-03-31T05:55:31.768Z,66.10
2023-03-31T05:58:02.377Z,64.30
2023-03-31T06:00:33.085Z,63.80
2023-03-31T06:03:02.115Z,63.90
2023-03-31T06:05:32.621Z,61.90
2023-03-31T06:08:01.754Z,59.30
2023-03-31T06:10:30.912Z,59.10
2023-03-31T06:12:59.810Z,59.00
2023-03-31T06:15:28.864Z,58.60
2023-03-31T06:17:59.261Z,58.60
2023-03-31T06:20:28.804Z,58.30
2023-03-31T06:22:58.993Z,57.60
2023-03-31T06:25:32.510Z,56.00
2023-03-31T06:28:09.424Z,55.00
2023-03-31T06:30:38.513Z,55.40
2023-03-31T06:33:09.182Z,55.20
2023-03-31T06:35:39.734Z,55.10
2023-03-31T06:38:09.175Z,55.40
2023-03-31T06:40:38.116Z,55.10
2023-03-31T06:43:07.011Z,54.70
2023-03-31T06:45:36.435Z,54.50
2023-03-31T06:48:05.623Z,54.00
2023-03-31T06:50:36.019Z,53.60
2023-03-31T06:53:05.074Z,53.20
2023-03-31T06:55:34.112Z,53.80
2023-03-31T06:58:03.478Z,53.40
2023-03-31T07:00:32.541Z,53.40
2023-03-31T07:03:01.599Z,53.10
2023-03-31T07:05:31.313Z,53.20
2023-03-31T07:08:02.700Z,52.70
2023-03-31T07:10:34.741Z,53.70
2023-03-31T07:13:05.602Z,53.40
2023-03-31T07:15:34.814Z,53.80
2023-03-31T07:18:03.694Z,54.00
2023-03-31T07:20:32.930Z,54.00
2023-03-31T07:23:06.614Z,54.00
2023-03-31T07:25:36.009Z,53.90
2023-03-31T07:28:06.187Z,53.70
2023-03-31T07:30:35.320Z,53.00
2023-03-31T07:33:04.424Z,52.90
2023-03-31T07:35:33.415Z,52.10
2023-03-31T07:38:03.782Z,52.40
2023-03-31T07:40:32.851Z,52.40
2023-03-31T07:43:02.124Z,52.00
2023-03-31T07:45:31.365Z,52.10
2023-03-31T07:48:00.911Z,52.30
2023-03-31T07:50:29.942Z,52.50
2023-03-31T07:53:00.711Z,52.80
2023-03-31T07:55:31.388Z,53.10
2023-03-31T07:58:00.420Z,52.70
2023-03-31T08:00:29.481Z,52.50
2023-03-31T08:02:58.566Z,52.20
2023-03-31T08:05:27.602Z,51.90
2023-03-31T08:07:56.537Z,52.00
2023-03-31T08:10:27.806Z,52.20
2023-03-31T08:12:58.154Z,51.30
2023-03-31T08:15:46.127Z,51.00
2023-03-31T08:18:15.103Z,50.70
2023-03-31T08:20:44.144Z,50.10
2023-03-31T08:23:13.064Z,50.20
2023-03-31T08:25:41.980Z,50.80
2023-03-31T08:28:31.058Z,50.70
2023-03-31T08:31:16.510Z,50.50
2023-03-31T08:33:45.883Z,50.50
2023-03-31T08:36:15.239Z,50.20
2023-03-31T08:38:46.484Z,49.80
2023-03-31T08:41:44.513Z,49.70
2023-03-31T08:44:17.686Z,50.20
2023-03-31T08:47:07.453Z,50.20
2023-03-31T08:49:41.733Z,49.10
2023-03-31T08:52:16.027Z,49.50
2023-03-31T08:54:49.646Z,49.20
2023-03-31T08:57:22.245Z,48.70
2023-03-31T08:59:52.862Z,48.90
2023-03-31T09:02:32.719Z,49.10
2023-03-31T09:05:24.365Z,48.60
2023-03-31T09:08:21.106Z,48.30
2023-03-31T09:10:57.180Z,47.70
2023-03-31T09:13:45.552Z,47.60
2023-03-31T09:16:17.700Z,46.50
2023-03-31T09:18:47.314Z,45.20
2023-03-31T09:21:20.903Z,45.50
2023-03-31T09:24:14.870Z,45.30
2023-03-31T09:26:47.624Z,44.00
2023-03-31T09:29:44.162Z,43.70
2023-03-31T09:32:19.675Z,44.60
2023-03-31T09:34:52.254Z,44.00
2023-03-31T09:37:21.612Z,44.00
2023-03-31T09:39:50.521Z,43.50
2023-03-31T09:42:20.656Z,43.50
2023-03-31T09:44:51.559Z,42.60
2023-03-31T09:47:30.577Z,42.20
2023-03-31T09:49:59.822Z,40.90
2023-03-31T09:52:32.024Z,40.60
2023-03-31T09:55:03.047Z,40.40
2023-03-31T09:57:34.458Z,39.60
2023-03-31T10:00:16.683Z,39.90
2023-03-31T10:02:51.702Z,38.80
2023-03-31T10:05:30.831Z,39.40
2023-03-31T10:08:20.370Z,38.60
2023-03-31T10:10:51.966Z,39.00
2023-03-31T10:13:23.745Z,38.90
2023-03-31T10:15:55.966Z,39.00
2023-03-31T10:18:35.721Z,38.60
2023-03-31T10:21:06.239Z,37.60
2023-03-31T10:23:36.989Z,37.00
2023-03-31T10:26:07.109Z,37.70
2023-03-31T10:28:37.728Z,37.60
2023-03-31T10:31:08.819Z,37.40
2023-03-31T10:33:45.243Z,37.80
2023-03-31T10:36:23.945Z,37.70
2023-03-31T10:38:53.980Z,37.70
2023-03-31T10:41:25.300Z,37.10
2023-03-31T10:43:55.721Z,37.20
2023-03-31T10:46:44.200Z,37.30
2023-03-31T10:49:27.659Z,38.10
2023-03-31T10:51:59.084Z,38.60
2023-03-31T10:54:28.444Z,38.90
2023-03-31T10:57:01.776Z,38.90
2023-03-31T11:00:05.901Z,38.80
2023-03-31T11:02:50.375Z,39.10
2023-03-31T11:05:28.400Z,39.00
2023-03-31T11:08:15.254Z,39.50
2023-03-31T11:10:59.417Z,40.40
2023-03-31T11:13:37.789Z,42.50
2023-03-31T11:16:20.312Z,43.20
2023-03-31T11:19:12.402Z,42.70
2023-03-31T11:21:54.712Z,41.50
2023-03-31T11:24:55.323Z,40.10
2023-03-31T11:27:34.210Z,39.70
2023-03-31T11:30:12.327Z,37.70
2023-03-31T11:32:57.480Z,36.40
2023-03-31T11:35:45.291Z,36.50
2023-03-31T11:38:34.683Z,35.50
2023-03-31T11:41:07.486Z,35.10
2023-03-31T11:43:41.721Z,34.40
2023-03-31T11:46:16.380Z,35.90
2023-03-31T11:48:49.178Z,34.90
2023-03-31T11:51:23.012Z,34.50
2023-03-31T11:53:55.964Z,34.30
2023-03-31T11:56:27.987Z,34.60
2023-03-31T11:59:01.348Z,34.30
2023-03-31T12:01:40.938Z,33.70
2023-03-31T12:04:18.720Z,33.10
2023-03-31T12:06:50.680Z,32.80
2023-03-31T12:09:26.788Z,32.40
2023-03-31T12:12:02.918Z,32.40
2023-03-31T12:14:36.315Z,32.20
2023-03-31T12:17:29.588Z,31.80
2023-03-31T12:20:02.424Z,32.40
2023-03-31T12:22:34.541Z,32.50
2023-03-31T12:25:05.625Z,32.60
2023-03-31T12:27:40.406Z,32.50
2023-03-31T12:30:15.667Z,32.50
2023-03-31T12:32:49.027Z,32.20
2023-03-31T12:35:24.037Z,32.10
2023-03-31T12:38:07.954Z,32.20
2023-03-31T12:40:47.625Z,32.60
2023-03-31T12:43:50.754Z,32.60
2023-03-31T12:46:32.573Z,32.70
2023-03-31T12:49:13.045Z,33.00
2023-03-31T12:52:02.214Z,33.10
2023-03-31T12:55:01.474Z,33.30
2023-03-31T12:57:32.939Z,33.20
2023-03-31T13:00:27.993Z,33.30
2023-03-31T13:03:34.591Z,33.60
2023-03-31T13:06:03.949Z,34.10
2023-03-31T13:08:54.970Z,34.60
2023-03-31T13:11:37.278Z,34.70
2023-03-31T13:14:14.442Z,35.30
2023-03-31T13:16:43.737Z,35.30
2023-03-31T13:19:28.301Z,34.90
2023-03-31T13:21:59.403Z,34.70
2023-03-31T13:24:29.868Z,34.90
2023-03-31T13:27:01.563Z,35.00
2023-03-31T13:29:44.544Z,34.70
2023-03-31T13:32:27.765Z,34.80
2023-03-31T13:35:01.515Z,35.00
2023-03-31T13:38:03.444Z,35.20
2023-03-31T13:41:10.118Z,35.50
2023-03-31T13:44:05.482Z,35.80
2023-03-31T13:46:57.852Z,35.90
2023-03-31T13:50:01.993Z,35.70
2023-03-31T13:52:41.214Z,36.20
2023-03-31T13:55:54.047Z,36.50
2023-03-31T13:58:40.794Z,36.80
2023-03-31T14:01:42.502Z,36.20
2023-03-31T14:04:41.973Z,36.00
2023-03-31T14:07:16.030Z,36.90
2023-03-31T14:09:50.067Z,36.80
2023-03-31T14:12:24.205Z,37.30
2023-03-31T14:14:57.839Z,37.60
2023-03-31T14:17:31.387Z,37.70
2023-03-31T14:20:28.748Z,38.00
2023-03-31T14:23:15.797Z,37.70
2023-03-31T14:25:52.784Z,37.90
2023-03-31T14:28:47.116Z,37.70
2023-03-31T14:31:21.797Z,38.00
2023-03-31T14:34:08.694Z,36.90
2023-03-31T14:36:48.273Z,36.70
2023-03-31T14:39:23.836Z,36.80
2023-03-31T14:41:55.187Z,36.80
2023-03-31T14:44:27.286Z,36.60
2023-03-31T14:46:58.679Z,36.70
2023-03-31T14:49:29.477Z,37.20
2023-03-31T14:52:06.721Z,37.40
2023-03-31T14:54:38.701Z,37.30
2023-03-31T14:57:07.907Z,37.80
2023-03-31T14:59:37.708Z,38.00
2023-03-31T15:02:07.695Z,38.50
2023-03-31T15:04:46.660Z,38.50
2023-03-31T15:07:18.162Z,38.10
2023-03-31T15:09:52.125Z,37.90
2023-03-31T15:12:23.717Z,37.90
2023-03-31T15:14:56.514Z,38.60
2023-03-31T15:17:27.445Z,39.10
2023-03-31T15:19:58.223Z,39.20
2023-03-31T15:22:50.958Z,39.40
2023-03-31T15:25:22.407Z,39.70
2023-03-31T15:27:54.997Z,40.10
2023-03-31T15:30:26.904Z,40.60
2023-03-31T15:33:01.479Z,40.80
2023-03-31T15:35:37.558Z,41.20
2023-03-31T15:38:08.484Z,41.20
2023-03-31T15:40:41.151Z,41.30
2023-03-31T15:43:25.433Z,41.60
2023-03-31T15:45:58.500Z,41.00
2023-03-31T15:48:33.929Z,40.80
2023-03-31T15:51:06.785Z,41.30
2023-03-31T15:53:46.932Z,41.80
2023-03-31T15:56:31.446Z,42.30
2023-03-31T15:59:04.590Z,42.00
2023-03-31T16:01:36.815Z,42.10
2023-03-31T16:04:10.402Z,42.20
2023-03-31T16:06:47.314Z,42.40
2023-03-31T16:09:21.677Z,42.80
2023-03-31T16:11:53.246Z,42.80
2023-03-31T16:14:24.632Z,43.40
2023-03-31T16:16:59.324Z,43.90
2023-03-31T16:19:32.227Z,44.30
2023-03-31T16:22:03.676Z,44.70
2023-03-31T16:24:36.244Z,45.00
2023-03-31T16:27:07.963Z,45.40
2023-03-31T16:29:38.783Z,45.80
2023-03-31T16:32:13.794Z,46.00
2023-03-31T16:34:57.290Z,46.40
2023-03-31T16:37:26.891Z,46.90
2023-03-31T16:39:57.835Z,47.10
2023-03-31T16:42:27.351Z,47.50
2023-03-31T16:45:12.591Z,48.00
2023-03-31T16:47:45.487Z,48.40
2023-03-31T16:50:15.985Z,48.80
2023-03-31T16:52:45.657Z,49.20
2023-03-31T16:55:16.318Z,49.50
2023-03-31T16:57:45.683Z,50.10
2023-03-31T17:00:16.441Z,50.60
2023-03-31T17:02:45.541Z,51.20
2023-03-31T17:05:15.311Z,51.60
2023-03-31T17:07:45.027Z,51.80
2023-03-31T17:10:14.303Z,52.00
2023-03-31T17:12:44.909Z,52.20
2023-03-31T17:15:14.891Z,52.50
2023-03-31T17:17:43.947Z,53.00
2023-03-31T17:20:19.294Z,53.00
2023-03-31T17:22:51.805Z,53.00
2023-03-31T17:25:20.927Z,53.30
2023-03-31T17:27:51.202Z,53.40
2023-03-31T17:30:20.174Z,53.60
2023-03-31T17:32:50.681Z,53.70
2023-03-31T17:35:22.757Z,54.00
2023-03-31T17:37:53.955Z,54.30
2023-03-31T17:40:23.694Z,54.40
2023-03-31T17:42:54.823Z,54.50
2023-03-31T17:45:24.188Z,55.00
2023-03-31T17:47:53.953Z,55.30
2023-03-31T17:50:23.878Z,55.60
2023-03-31T17:52:52.984Z,55.80
2023-03-31T17:55:21.902Z,56.10
2023-03-31T17:57:51.145Z,56.50
2023-03-31T18:00:22.145Z,56.90
2023-03-31T18:02:51.688Z,57.10
2023-03-31T18:05:20.684Z,57.10
2023-03-31T18:07:49.512Z,57.10
2023-03-31T18:10:18.852Z,57.50
2023-03-31T18:12:48.010Z,57.70
2023-03-31T18:15:17.038Z,58.20
2023-03-31T18:17:48.223Z,58.00
2023-03-31T18:20:17.258Z,57.90
2023-03-31T18:22:46.122Z,58.20
2023-03-31T18:25:15.643Z,58.40
2023-03-31T18:27:44.639Z,58.90
2023-03-31T18:30:14.926Z,59.20
2023-03-31T18:32:44.102Z,59.60
2023-03-31T18:35:14.635Z,59.70
2023-03-31T18:37:46.410Z,59.80
2023-03-31T18:40:15.948Z,59.80
2023-03-31T18:42:44.974Z,59.80
2023-03-31T18:45:13.906Z,60.20
2023-03-31T18:47:43.392Z,60.40
2023-03-31T18:50:14.404Z,60.30
2023-03-31T18:52:43.366Z,59.70
2023-03-31T18:55:12.376Z,59.60
2023-03-31T18:57:41.408Z,60.00
2023-03-31T19:00:11.484Z,60.30
2023-03-31T19:02:41.044Z,60.40
2023-03-31T19:05:13.739Z,60.40
2023-03-31T19:07:44.243Z,60.10
2023-03-31T19:10:21.074Z,60.20
2023-03-31T19:12:50.438Z,60.30
2023-03-31T19:15:19.624Z,60.20
2023-03-31T19:17:48.598Z,60.30
2023-03-31T19:20:17.758Z,60.40
2023-03-31T19:22:49.479Z,60.50
2023-03-31T19:25:19.567Z,60.40
2023-03-31T19:27:48.654Z,60.40
2023-03-31T19:30:20.374Z,60.40
2023-03-31T19:32:50.699Z,60.00
2023-03-31T19:35:21.019Z,59.90
2023-03-31T19:37:58.956Z,59.60
2023-03-31T19:40:29.274Z,59.20
2023-03-31T19:42:58.237Z,58.60
2023-03-31T19:45:27.230Z,58.50
2023-03-31T19:47:56.374Z,58.70
2023-03-31T19:50:26.246Z,59.30
2023-03-31T19:52:56.752Z,58.50
2023-03-31T19:55:26.176Z,58.10
2023-03-31T19:57:55.293Z,58.30
2023-03-31T20:00:31.968Z,57.70
2023-03-31T20:03:03.843Z,58.30
2023-03-31T20:05:34.938Z,57.80
2023-03-31T20:08:05.704Z,57.90
2023-03-31T20:10:53.732Z,57.70
2023-03-31T20:13:22.798Z,57.70
2023-03-31T20:16:00.951Z,57.30
2023-03-31T20:18:30.723Z,56.60
2023-03-31T20:21:08.771Z,56.70
2023-03-31T20:23:40.528Z,56.50
2023-03-31T20:26:11.917Z,56.40
2023-03-31T20:28:41.977Z,56.30
2023-03-31T20:31:11.972Z,56.40
2023-03-31T20:33:42.202Z,56.50
2023-03-31T20:36:13.742Z,56.80
2023-03-31T20:38:46.634Z,56.80
2023-03-31T20:41:16.448Z,56.80
2023-03-31T20:43:45.579Z,56.80
2023-03-31T20:46:14.672Z,57.20
2023-03-31T20:48:46.277Z,57.30
2023-03-31T20:51:19.503Z,57.50
2023-03-31T20:54:09.183Z,57.70
2023-03-31T20:56:40.656Z,58.00
2023-03-31T20:59:11.769Z,58.00
2023-03-31T21:01:42.827Z,58.50
2023-03-31T21:04:13.380Z,58.60
2023-03-31T21:06:44.735Z,58.70
2023-03-31T21:09:16.140Z,59.00
2023-03-31T21:11:45.093Z,59.20
2023-03-31T21:14:16.008Z,59.50
2023-03-31T21:16:45.669Z,59.80
2023-03-31T21:19:14.642Z,60.30
2023-03-31T21:21:43.537Z,60.00
2023-03-31T21:24:15.156Z,60.40
2023-03-31T21:26:44.492Z,61.30
2023-03-31T21:29:13.302Z,60.90
2023-03-31T21:31:45.070Z,61.20
2023-03-31T21:34:14.346Z,61.50
2023-03-31T21:36:43.654Z,61.50
2023-03-31T21:39:12.662Z,61.60
2023-03-31T21:41:43.357Z,61.40
2023-03-31T21:44:12.238Z,61.60
2023-03-31T21:46:41.374Z,61.80
2023-03-31T21:49:10.319Z,62.10
2023-03-31T21:51:39.425Z,62.40
2023-03-31T21:54:08.282Z,62.40
2023-03-31T21:56:37.483Z,62.60
2023-03-31T21:59:08.955Z,62.80
2023-03-31T22:01:38.104Z,63.20
2023-03-31T22:04:07.565Z,63.40
2023-03-31T22:06:39.636Z,63.70
2023-03-31T22:09:08.676Z,63.90
2023-03-31T22:11:37.510Z,64.40
2023-03-31T22:14:08.095Z,64.90
2023-03-31T22:16:37.155Z,65.30
2023-03-31T22:19:06.119Z,65.70
2023-03-31T22:21:45.903Z,66.10
2023-03-31T22:24:15.300Z,66.10
2023-03-31T22:26:44.360Z,66.20
2023-03-31T22:29:17.903Z,66.40
2023-03-31T22:31:47.006Z,66.60
2023-03-31T22:34:16.130Z,66.90
2023-03-31T22:36:45.106Z,67.40
2023-03-31T22:39:14.132Z,67.70
2023-03-31T22:41:43.088Z,67.90
2023-03-31T22:44:12.781Z,68.90
2023-03-31T22:46:46.651Z,69.00
2023-03-31T22:49:16.253Z,69.20
2023-03-31T22:51:45.354Z,69.60
2023-03-31T22:54:16.050Z,69.90
2023-03-31T22:56:45.641Z,70.30
2023-03-31T22:59:14.520Z,70.60
2023-03-31T23:01:47.162Z,70.70
2023-03-31T23:04:16.257Z,70.70
2023-03-31T23:06:45.130Z,71.10
2023-03-31T23:09:14.261Z,71.80
2023-03-31T23:11:45.095Z,72.20
2023-03-31T23:14:14.389Z,72.70
2023-03-31T23:16:44.756Z,72.90
2023-03-31T23:19:15.287Z,73.20
2023-03-31T23:21:44.324Z,73.40
2023-03-31T23:24:13.213Z,73.60
2023-03-31T23:26:42.065Z,74.00
2023-03-31T23:29:11.033Z,74.30
2023-03-31T23:31:39.884Z,74.50
2023-03-31T23:34:11.519Z,74.80
2023-03-31T23:36:40.335Z,75.60
2023-03-31T23:39:09.144Z,75.00
2023-03-31T23:41:37.979Z,75.40
2023-03-31T23:44:07.591Z,75.70
2023-03-31T23:46:38.124Z,75.90
2023-03-31T23:49:07.839Z,76.20
2023-03-31T23:51:38.153Z,76.40
2023-03-31T23:54:07.461Z,76.60
2023-03-31T23:56:36.312Z,76.70
2023-03-31T23:59:05.203Z,76.70
